首页
METAR-TAF:

METAR-TAF

机场 :

乌代德空军基地, 卡塔尔

纬度: 25-07N, 经度: 051-18E, 海拔: 42米

当前天气观测

该预报发布于18分钟前的15:55 UTC
风速3节,风向北转西北
温度 20°C
湿度 78%
气压 1015 hPa
能見度: 9000
少量云层高于20000英尺

METAR: OTBH 121555Z 33003KT 9000 HZ FEW200 20/16 A2997 RMK AO2A SLP151 WND DATA ESTMD ALSTG/SLP ESTMD T01990159 $

时间: 19:13 (16:13 UTC)

预报

该预报发布于13分钟前的16:00 UTC
预报有效从12日的 16点(UTC)到 13日的 22点(UTC)
风速12节,风向西北
能見度: 9000
天空无云
成为
从 12日的 17点(UTC)到 12日的 18点(UTC)
风速9节,风向西南
能見度: 9000
天空无云
成为
从 12日的 22点(UTC)到 12日的 23点(UTC)
风速6节,风向多变
能見度: 6000
天空无云
轻雾
成为
从 13日的 02点(UTC)到 13日的 03点(UTC)
风速6节,风向多变
能見度: 3000
天空无云
轻雾
成为
从 13日的 06点(UTC)到 13日的 07点(UTC)
风速9节,风向西转西南
能見度: 9000
多云层高于8000英尺
成为
从 13日的 13点(UTC)到 13日的 14点(UTC)
风速9节,风向
能見度: 8000
多云层高于5000英尺
阴天层高于8000英尺
小阵雨
成为
从 13日的 18点(UTC)到 13日的 19点(UTC)
风速6节,风向东南
能見度: 9000
多云层高于6000英尺

TAF: OTBH 121600Z 1216/1322 32012KT 9000 HZ SKC QNH2994INS BECMG 1217/1218 22009KT 9000 HZ SKC QNH2992INS BECMG 1222/1223 VRB06KT 6000 BR SKC QNH2993INS BECMG 1302/1303 VRB06KT 3000 BR SKC QNH2995INS BECMG 1306/1307 24009KT 9000 HZ BKN080 QNH2994INS BECMG 1313/1314 10009KT 8000 -SHRA BKN050 OVC080 QNH2997INS BECMG 1318/1319 13006KT 9000 HZ BKN060 QNH2999INS TX24/1311Z TN17/1300Z

超过4000个机场的气象观测和天气预报(METAR&TAF报告)。

可查询的气象台以黄色和红色小点在地图上表示。

将鼠标移到小点上方,可查看气象台名称。

然后点击查看天气观测和预报。

如需切换地图:点击带黑十字的绿色按钮放大地图;点击带横线的绿色按钮缩小地图;或者点击绿色箭头查看邻近地区的地图。


METAR-TAF: